Terminal Aerodrome Forecast
Issued by NWS Tampa Bay Area, FL

Home | Current Version | Previous Version | Text Only | Print | Product List | Glossary On
Versions: 1 2 3 4 5 6 7 8 9 10 11 12 13 14 15 16 17 18 19 20 21 22 23 24 25
027
FTUS42 KTBW 292342
TAFTPA
TAF
KTPA 292342Z 3000/3024 13010KT P6SM FEW040 BKN250
     FM300900 13008KT P6SM SCT025 BKN100
     FM301400 14012G19KT P6SM SCT035 OVC100
     FM301900 18010G18KT P6SM SCT070 SCT250=

USA.gov is the U.S. government's official web portal to all federal, state and local government web resources and services.